Terminal Aerodrome Forecast
Issued by NWS Upton, NY

Home | Current Version | Previous Version | Text Only | Print | Product List | Glossary On
Versions: 1 2 3 4 5 6 7 8 9 10 11 12 13 14 15 16 17 18 19 20 21 22 23 24 25 26 27 28 29 30 31 32 33 34
000
FTUS41 KOKX 141300 AAA
TAFJFK
TAF AMD
KJFK 141348Z 1414/1518 19007KT P6SM SCT020 BKN040 BKN120
     FM141500 18011KT P6SM VCSH BKN040
      TEMPO 1418/1421 3SM TSRA BKN040CB
     FM142200 19013KT 4SM SHRA SCT025 BKN050
      TEMPO 1423/1503 3SM TSRA BKN050CB
     FM150500 18008KT 3SM BR VCSH SCT015 BKN030
     FM151300 20010KT 4SM SHRA BR BKN030=

USA.gov is the U.S. government's official web portal to all federal, state and local government web resources and services.